CXO weather

Public forecast

Using degrees Fahrenheit for public forecast. Weather courtesy of forecast.io.

Current aviation weather report (METAR) for Conroe-North Houston Regional Airport

Retrieved 2020/08/15 10:53 UTC (24 minutes ago):

KCXO 151053Z 24003KT 10SM CLR 27/24 A2993 RMK AO2 SLP130 T02670244

Aviation forecast (TAF) for Conroe-North Houston Regional Airport

Retrieved 2020/08/15 06:22 UTC (5 hours ago):

TAF KCXO 150520Z 1506/1606 19008KT P6SM SCT250 FM151200 21006KT P6SM FEW015 BKN120 FM151600 20009KT P6SM FEW035 SCT120 FM152100 16007KT P6SM SCT060 FM160100 15005KT P6SM FEW060 SCT250